sensor_id;sensor_type;location;lat;lon;timestamp;P1;durP1;ratioP1;P2;durP2;ratioP2
27265;SDS011;14766;51.380;13.762;2023-02-13T00:00:20;18.48;;;10.30;;
27265;SDS011;14766;51.380;13.762;2023-02-13T00:02:49;20.38;;;10.82;;
27265;SDS011;14766;51.380;13.762;2023-02-13T00:05:16;19.60;;;10.63;;
27265;SDS011;14766;51.380;13.762;2023-02-13T00:07:43;19.50;;;11.25;;
27265;SDS011;14766;51.380;13.762;2023-02-13T00:10:10;20.38;;;10.40;;
27265;SDS011;14766;51.380;13.762;2023-02-13T00:12:38;18.88;;;11.07;;
27265;SDS011;14766;51.380;13.762;2023-02-13T00:15:05;20.98;;;11.57;;
27265;SDS011;14766;51.380;13.762;2023-02-13T00:17:33;18.67;;;11.15;;
27265;SDS011;14766;51.380;13.762;2023-02-13T00:20:00;22.83;;;12.52;;
27265;SDS011;14766;51.380;13.762;2023-02-13T00:22:27;26.05;;;13.98;;
27265;SDS011;14766;51.380;13.762;2023-02-13T00:24:54;24.20;;;13.32;;
27265;SDS011;14766;51.380;13.762;2023-02-13T00:27:21;24.95;;;13.13;;
27265;SDS011;14766;51.380;13.762;2023-02-13T00:29:48;24.70;;;13.50;;
27265;SDS011;14766;51.380;13.762;2023-02-13T00:32:15;25.25;;;14.40;;
27265;SDS011;14766;51.380;13.762;2023-02-13T00:34:42;27.98;;;14.38;;
27265;SDS011;14766;51.380;13.762;2023-02-13T00:37:09;27.90;;;13.73;;
27265;SDS011;14766;51.380;13.762;2023-02-13T00:39:36;28.52;;;14.38;;
27265;SDS011;14766;51.380;13.762;2023-02-13T00:42:04;27.83;;;14.93;;
27265;SDS011;14766;51.380;13.762;2023-02-13T00:44:31;29.70;;;14.70;;
27265;SDS011;14766;51.380;13.762;2023-02-13T00:46:59;31.40;;;15.45;;
27265;SDS011;14766;51.380;13.762;2023-02-13T00:49:27;27.55;;;14.55;;
27265;SDS011;14766;51.380;13.762;2023-02-13T00:51:54;29.77;;;14.88;;
27265;SDS011;14766;51.380;13.762;2023-02-13T00:54:21;27.30;;;14.50;;
27265;SDS011;14766;51.380;13.762;2023-02-13T00:56:48;25.50;;;13.57;;
27265;SDS011;14766;51.380;13.762;2023-02-13T00:59:15;27.50;;;13.90;;
27265;SDS011;14766;51.380;13.762;2023-02-13T01:01:43;27.17;;;14.02;;
27265;SDS011;14766;51.380;13.762;2023-02-13T01:04:10;25.77;;;13.88;;
27265;SDS011;14766;51.380;13.762;2023-02-13T01:06:37;30.35;;;14.65;;
27265;SDS011;14766;51.380;13.762;2023-02-13T01:09:04;25.83;;;13.88;;
27265;SDS011;14766;51.380;13.762;2023-02-13T01:11:34;27.95;;;15.05;;
27265;SDS011;14766;51.380;13.762;2023-02-13T01:14:01;29.85;;;14.63;;
27265;SDS011;14766;51.380;13.762;2023-02-13T01:16:28;31.58;;;15.70;;
27265;SDS011;14766;51.380;13.762;2023-02-13T01:18:55;28.10;;;14.90;;
27265;SDS011;14766;51.380;13.762;2023-02-13T01:21:22;28.45;;;15.00;;
27265;SDS011;14766;51.380;13.762;2023-02-13T01:23:51;27.45;;;14.35;;
27265;SDS011;14766;51.380;13.762;2023-02-13T01:26:20;28.30;;;15.38;;
27265;SDS011;14766;51.380;13.762;2023-02-13T01:28:52;32.50;;;16.85;;
27265;SDS011;14766;51.380;13.762;2023-02-13T01:31:20;30.60;;;16.48;;
27265;SDS011;14766;51.380;13.762;2023-02-13T01:33:48;26.92;;;15.15;;
27265;SDS011;14766;51.380;13.762;2023-02-13T01:36:19;29.98;;;14.80;;
27265;SDS011;14766;51.380;13.762;2023-02-13T01:38:47;27.48;;;14.88;;
27265;SDS011;14766;51.380;13.762;2023-02-13T01:41:17;29.95;;;14.68;;
27265;SDS011;14766;51.380;13.762;2023-02-13T01:43:49;32.42;;;15.85;;
27265;SDS011;14766;51.380;13.762;2023-02-13T01:46:38;27.83;;;15.32;;
27265;SDS011;14766;51.380;13.762;2023-02-13T01:49:12;25.23;;;14.25;;
27265;SDS011;14766;51.380;13.762;2023-02-13T01:51:44;26.83;;;13.77;;
27265;SDS011;14766;51.380;13.762;2023-02-13T01:54:13;31.23;;;16.65;;
27265;SDS011;14766;51.380;13.762;2023-02-13T01:56:49;27.90;;;15.43;;
27265;SDS011;14766;51.380;13.762;2023-02-13T01:59:26;29.00;;;15.00;;
27265;SDS011;14766;51.380;13.762;2023-02-13T02:01:56;31.48;;;16.33;;
27265;SDS011;14766;51.380;13.762;2023-02-13T02:04:26;33.65;;;17.40;;
27265;SDS011;14766;51.380;13.762;2023-02-13T02:07:06;37.95;;;17.70;;
27265;SDS011;14766;51.380;13.762;2023-02-13T02:09:37;32.83;;;17.15;;
27265;SDS011;14766;51.380;13.762;2023-02-13T02:12:26;31.23;;;15.95;;
27265;SDS011;14766;51.380;13.762;2023-02-13T02:14:58;32.17;;;15.38;;
27265;SDS011;14766;51.380;13.762;2023-02-13T02:17:30;30.20;;;17.00;;
27265;SDS011;14766;51.380;13.762;2023-02-13T02:37:47;29.73;;;15.13;;
27265;SDS011;14766;51.380;13.762;2023-02-13T02:43:27;30.88;;;17.13;;
27265;SDS011;14766;51.380;13.762;2023-02-13T02:45:44;29.20;;;14.77;;
27265;SDS011;14766;51.380;13.762;2023-02-13T02:51:21;30.63;;;15.93;;
27265;SDS011;14766;51.380;13.762;2023-02-13T02:54:02;27.95;;;15.05;;
27265;SDS011;14766;51.380;13.762;2023-02-13T02:57:30;31.65;;;16.15;;
27265;SDS011;14766;51.380;13.762;2023-02-13T03:00:20;32.95;;;17.23;;
27265;SDS011;14766;51.380;13.762;2023-02-13T03:03:21;31.92;;;17.00;;
27265;SDS011;14766;51.380;13.762;2023-02-13T03:06:16;27.88;;;15.60;;
27265;SDS011;14766;51.380;13.762;2023-02-13T03:08:53;34.65;;;18.92;;
27265;SDS011;14766;51.380;13.762;2023-02-13T03:11:42;28.42;;;15.10;;
27265;SDS011;14766;51.380;13.762;2023-02-13T03:14:32;31.63;;;17.98;;
27265;SDS011;14766;51.380;13.762;2023-02-13T03:17:00;30.77;;;18.23;;
27265;SDS011;14766;51.380;13.762;2023-02-13T03:31:48;34.38;;;17.25;;
27265;SDS011;14766;51.380;13.762;2023-02-13T03:34:28;32.75;;;15.95;;
27265;SDS011;14766;51.380;13.762;2023-02-13T03:37:26;32.40;;;17.50;;
27265;SDS011;14766;51.380;13.762;2023-02-13T03:40:16;34.67;;;17.92;;
27265;SDS011;14766;51.380;13.762;2023-02-13T03:43:07;29.50;;;17.00;;
27265;SDS011;14766;51.380;13.762;2023-02-13T03:45:43;31.40;;;16.40;;
27265;SDS011;14766;51.380;13.762;2023-02-13T03:48:26;31.42;;;17.40;;
27265;SDS011;14766;51.380;13.762;2023-02-13T03:51:17;32.60;;;17.50;;
27265;SDS011;14766;51.380;13.762;2023-02-13T03:53:50;35.03;;;18.92;;
27265;SDS011;14766;51.380;13.762;2023-02-13T03:56:21;32.83;;;18.02;;
27265;SDS011;14766;51.380;13.762;2023-02-13T03:59:12;27.95;;;15.90;;
27265;SDS011;14766;51.380;13.762;2023-02-13T04:01:58;40.25;;;19.10;;
27265;SDS011;14766;51.380;13.762;2023-02-13T04:04:49;37.00;;;17.77;;
27265;SDS011;14766;51.380;13.762;2023-02-13T04:07:24;30.75;;;16.17;;
27265;SDS011;14766;51.380;13.762;2023-02-13T04:09:59;31.85;;;16.70;;
27265;SDS011;14766;51.380;13.762;2023-02-13T04:12:38;32.97;;;17.35;;
27265;SDS011;14766;51.380;13.762;2023-02-13T04:15:16;34.05;;;18.48;;
27265;SDS011;14766;51.380;13.762;2023-02-13T04:20:36;32.90;;;17.77;;
27265;SDS011;14766;51.380;13.762;2023-02-13T04:23:08;38.28;;;19.75;;
27265;SDS011;14766;51.380;13.762;2023-02-13T04:25:37;35.60;;;18.23;;
27265;SDS011;14766;51.380;13.762;2023-02-13T04:28:07;36.45;;;19.48;;
27265;SDS011;14766;51.380;13.762;2023-02-13T04:30:34;37.88;;;19.83;;
27265;SDS011;14766;51.380;13.762;2023-02-13T04:33:01;37.47;;;19.92;;
27265;SDS011;14766;51.380;13.762;2023-02-13T04:35:28;34.60;;;18.75;;
27265;SDS011;14766;51.380;13.762;2023-02-13T04:37:55;35.30;;;19.25;;
27265;SDS011;14766;51.380;13.762;2023-02-13T04:40:22;35.78;;;18.50;;
27265;SDS011;14766;51.380;13.762;2023-02-13T04:42:52;34.22;;;17.83;;
27265;SDS011;14766;51.380;13.762;2023-02-13T04:45:19;33.55;;;18.75;;
27265;SDS011;14766;51.380;13.762;2023-02-13T04:47:53;32.80;;;18.65;;
27265;SDS011;14766;51.380;13.762;2023-02-13T04:50:21;36.92;;;19.27;;
27265;SDS011;14766;51.380;13.762;2023-02-13T04:52:53;31.88;;;16.75;;
27265;SDS011;14766;51.380;13.762;2023-02-13T04:55:22;33.53;;;17.73;;
27265;SDS011;14766;51.380;13.762;2023-02-13T04:57:51;35.72;;;19.02;;
27265;SDS011;14766;51.380;13.762;2023-02-13T05:00:23;31.13;;;16.75;;
27265;SDS011;14766;51.380;13.762;2023-02-13T05:02:51;29.55;;;16.33;;
27265;SDS011;14766;51.380;13.762;2023-02-13T05:05:19;31.15;;;17.17;;
27265;SDS011;14766;51.380;13.762;2023-02-13T05:07:46;32.72;;;18.35;;
27265;SDS011;14766;51.380;13.762;2023-02-13T05:10:14;34.55;;;18.00;;
27265;SDS011;14766;51.380;13.762;2023-02-13T05:12:41;33.92;;;17.13;;
27265;SDS011;14766;51.380;13.762;2023-02-13T05:15:08;31.13;;;17.58;;
27265;SDS011;14766;51.380;13.762;2023-02-13T05:17:35;33.35;;;18.00;;
27265;SDS011;14766;51.380;13.762;2023-02-13T05:20:02;33.17;;;17.95;;
27265;SDS011;14766;51.380;13.762;2023-02-13T05:22:29;30.35;;;16.85;;
27265;SDS011;14766;51.380;13.762;2023-02-13T05:25:15;27.55;;;16.10;;
27265;SDS011;14766;51.380;13.762;2023-02-13T05:27:42;27.90;;;16.75;;
27265;SDS011;14766;51.380;13.762;2023-02-13T05:30:09;26.23;;;15.50;;
27265;SDS011;14766;51.380;13.762;2023-02-13T05:32:37;23.05;;;15.10;;
27265;SDS011;14766;51.380;13.762;2023-02-13T05:35:04;28.92;;;17.05;;
27265;SDS011;14766;51.380;13.762;2023-02-13T05:37:31;26.17;;;15.63;;
27265;SDS011;14766;51.380;13.762;2023-02-13T05:39:58;28.20;;;15.75;;
27265;SDS011;14766;51.380;13.762;2023-02-13T05:42:25;25.00;;;15.00;;
27265;SDS011;14766;51.380;13.762;2023-02-13T05:44:52;25.45;;;15.85;;
27265;SDS011;14766;51.380;13.762;2023-02-13T05:47:19;27.90;;;16.20;;
27265;SDS011;14766;51.380;13.762;2023-02-13T05:49:46;27.00;;;15.60;;
27265;SDS011;14766;51.380;13.762;2023-02-13T05:52:13;26.63;;;16.00;;
27265;SDS011;14766;51.380;13.762;2023-02-13T05:54:40;22.65;;;14.80;;
27265;SDS011;14766;51.380;13.762;2023-02-13T05:57:07;24.17;;;15.48;;
27265;SDS011;14766;51.380;13.762;2023-02-13T05:59:34;22.02;;;13.85;;
27265;SDS011;14766;51.380;13.762;2023-02-13T06:02:01;26.10;;;14.43;;
27265;SDS011;14766;51.380;13.762;2023-02-13T06:04:28;22.63;;;14.63;;
27265;SDS011;14766;51.380;13.762;2023-02-13T06:06:55;25.48;;;16.00;;
27265;SDS011;14766;51.380;13.762;2023-02-13T06:09:23;24.98;;;15.07;;
27265;SDS011;14766;51.380;13.762;2023-02-13T06:11:50;21.63;;;13.52;;
27265;SDS011;14766;51.380;13.762;2023-02-13T06:14:17;22.13;;;13.45;;
27265;SDS011;14766;51.380;13.762;2023-02-13T06:16:44;20.02;;;12.00;;
27265;SDS011;14766;51.380;13.762;2023-02-13T06:19:11;18.67;;;12.48;;
27265;SDS011;14766;51.380;13.762;2023-02-13T06:21:38;17.75;;;11.55;;
27265;SDS011;14766;51.380;13.762;2023-02-13T06:24:05;17.63;;;11.80;;
27265;SDS011;14766;51.380;13.762;2023-02-13T06:26:33;16.42;;;11.98;;
27265;SDS011;14766;51.380;13.762;2023-02-13T06:29:00;18.92;;;11.27;;
27265;SDS011;14766;51.380;13.762;2023-02-13T06:31:28;18.08;;;11.50;;
27265;SDS011;14766;51.380;13.762;2023-02-13T06:33:55;19.25;;;11.85;;
27265;SDS011;14766;51.380;13.762;2023-02-13T06:36:22;18.42;;;12.23;;
27265;SDS011;14766;51.380;13.762;2023-02-13T06:38:49;16.05;;;10.65;;
27265;SDS011;14766;51.380;13.762;2023-02-13T06:41:17;17.70;;;11.25;;
27265;SDS011;14766;51.380;13.762;2023-02-13T06:43:44;19.52;;;11.98;;
27265;SDS011;14766;51.380;13.762;2023-02-13T06:46:11;19.98;;;11.88;;
27265;SDS011;14766;51.380;13.762;2023-02-13T06:48:38;20.60;;;12.75;;
27265;SDS011;14766;51.380;13.762;2023-02-13T06:51:05;22.45;;;12.85;;
27265;SDS011;14766;51.380;13.762;2023-02-13T06:53:32;18.27;;;11.45;;
27265;SDS011;14766;51.380;13.762;2023-02-13T06:56:01;21.50;;;12.32;;
27265;SDS011;14766;51.380;13.762;2023-02-13T06:58:32;18.10;;;12.00;;
27265;SDS011;14766;51.380;13.762;2023-02-13T07:00:59;21.27;;;12.57;;
27265;SDS011;14766;51.380;13.762;2023-02-13T07:03:26;20.67;;;11.98;;
27265;SDS011;14766;51.380;13.762;2023-02-13T07:05:53;18.52;;;11.07;;
27265;SDS011;14766;51.380;13.762;2023-02-13T07:08:22;20.40;;;12.40;;
27265;SDS011;14766;51.380;13.762;2023-02-13T07:10:49;20.67;;;11.98;;
27265;SDS011;14766;51.380;13.762;2023-02-13T07:13:16;21.33;;;12.30;;
27265;SDS011;14766;51.380;13.762;2023-02-13T07:15:43;20.48;;;12.77;;
27265;SDS011;14766;51.380;13.762;2023-02-13T07:18:10;20.83;;;12.00;;
27265;SDS011;14766;51.380;13.762;2023-02-13T07:20:37;20.60;;;12.68;;
27265;SDS011;14766;51.380;13.762;2023-02-13T07:23:04;25.58;;;13.45;;
27265;SDS011;14766;51.380;13.762;2023-02-13T07:25:33;22.35;;;12.60;;
27265;SDS011;14766;51.380;13.762;2023-02-13T07:28:01;22.67;;;13.60;;
27265;SDS011;14766;51.380;13.762;2023-02-13T07:30:32;21.77;;;12.55;;
27265;SDS011;14766;51.380;13.762;2023-02-13T07:33:01;24.95;;;13.48;;
27265;SDS011;14766;51.380;13.762;2023-02-13T07:35:28;25.35;;;13.13;;
27265;SDS011;14766;51.380;13.762;2023-02-13T07:37:56;19.38;;;12.00;;
27265;SDS011;14766;51.380;13.762;2023-02-13T07:40:24;22.65;;;11.82;;
27265;SDS011;14766;51.380;13.762;2023-02-13T07:42:51;20.75;;;11.40;;
27265;SDS011;14766;51.380;13.762;2023-02-13T07:45:19;22.27;;;11.90;;
27265;SDS011;14766;51.380;13.762;2023-02-13T07:47:46;20.02;;;11.73;;
27265;SDS011;14766;51.380;13.762;2023-02-13T07:50:13;20.30;;;11.15;;
27265;SDS011;14766;51.380;13.762;2023-02-13T07:52:40;19.67;;;11.65;;
27265;SDS011;14766;51.380;13.762;2023-02-13T07:55:07;18.55;;;10.95;;
27265;SDS011;14766;51.380;13.762;2023-02-13T07:57:34;24.73;;;13.00;;
27265;SDS011;14766;51.380;13.762;2023-02-13T08:00:01;21.05;;;11.75;;
27265;SDS011;14766;51.380;13.762;2023-02-13T08:02:36;24.60;;;13.35;;
27265;SDS011;14766;51.380;13.762;2023-02-13T08:05:04;26.10;;;14.75;;
27265;SDS011;14766;51.380;13.762;2023-02-13T08:07:31;29.58;;;15.48;;
27265;SDS011;14766;51.380;13.762;2023-02-13T08:09:59;26.95;;;14.40;;
27265;SDS011;14766;51.380;13.762;2023-02-13T08:12:55;25.83;;;13.20;;
27265;SDS011;14766;51.380;13.762;2023-02-13T08:15:22;27.52;;;13.77;;
27265;SDS011;14766;51.380;13.762;2023-02-13T08:17:49;23.80;;;12.85;;
27265;SDS011;14766;51.380;13.762;2023-02-13T08:20:16;23.40;;;13.10;;
27265;SDS011;14766;51.380;13.762;2023-02-13T08:22:43;23.90;;;12.93;;
27265;SDS011;14766;51.380;13.762;2023-02-13T08:25:11;23.52;;;12.18;;
27265;SDS011;14766;51.380;13.762;2023-02-13T08:27:38;25.25;;;13.80;;
27265;SDS011;14766;51.380;13.762;2023-02-13T08:30:05;27.15;;;14.05;;
27265;SDS011;14766;51.380;13.762;2023-02-13T08:32:34;25.70;;;13.65;;
27265;SDS011;14766;51.380;13.762;2023-02-13T08:35:19;26.05;;;14.45;;
27265;SDS011;14766;51.380;13.762;2023-02-13T08:37:46;40.45;;;21.95;;
27265;SDS011;14766;51.380;13.762;2023-02-13T08:40:13;55.60;;;30.63;;
27265;SDS011;14766;51.380;13.762;2023-02-13T08:42:40;66.30;;;35.35;;
27265;SDS011;14766;51.380;13.762;2023-02-13T08:45:07;70.60;;;38.45;;
27265;SDS011;14766;51.380;13.762;2023-02-13T08:47:37;63.65;;;35.88;;
27265;SDS011;14766;51.380;13.762;2023-02-13T08:50:05;48.67;;;26.05;;
27265;SDS011;14766;51.380;13.762;2023-02-13T08:52:33;38.53;;;20.63;;
27265;SDS011;14766;51.380;13.762;2023-02-13T08:55:00;33.22;;;17.60;;
27265;SDS011;14766;51.380;13.762;2023-02-13T08:57:29;28.15;;;14.77;;
27265;SDS011;14766;51.380;13.762;2023-02-13T08:59:56;30.25;;;14.77;;
27265;SDS011;14766;51.380;13.762;2023-02-13T09:02:24;30.05;;;14.45;;
27265;SDS011;14766;51.380;13.762;2023-02-13T09:04:51;29.27;;;14.82;;
27265;SDS011;14766;51.380;13.762;2023-02-13T09:07:18;28.33;;;14.50;;
27265;SDS011;14766;51.380;13.762;2023-02-13T09:09:46;34.33;;;15.82;;
27265;SDS011;14766;51.380;13.762;2023-02-13T09:12:13;29.25;;;13.85;;
27265;SDS011;14766;51.380;13.762;2023-02-13T09:14:41;31.73;;;14.98;;
27265;SDS011;14766;51.380;13.762;2023-02-13T09:17:08;28.25;;;13.93;;
27265;SDS011;14766;51.380;13.762;2023-02-13T09:19:35;32.97;;;13.55;;
27265;SDS011;14766;51.380;13.762;2023-02-13T09:22:02;25.27;;;12.80;;
27265;SDS011;14766;51.380;13.762;2023-02-13T09:24:29;30.98;;;14.27;;
27265;SDS011;14766;51.380;13.762;2023-02-13T09:26:56;30.70;;;15.05;;
27265;SDS011;14766;51.380;13.762;2023-02-13T09:29:23;33.92;;;15.93;;
27265;SDS011;14766;51.380;13.762;2023-02-13T09:31:52;36.60;;;18.13;;
27265;SDS011;14766;51.380;13.762;2023-02-13T09:34:19;31.00;;;15.38;;
27265;SDS011;14766;51.380;13.762;2023-02-13T09:36:50;32.03;;;16.20;;
27265;SDS011;14766;51.380;13.762;2023-02-13T09:39:18;28.45;;;13.77;;
27265;SDS011;14766;51.380;13.762;2023-02-13T09:41:46;28.85;;;13.68;;
27265;SDS011;14766;51.380;13.762;2023-02-13T09:50:06;26.48;;;12.88;;
27265;SDS011;14766;51.380;13.762;2023-02-13T09:52:36;28.52;;;13.73;;
27265;SDS011;14766;51.380;13.762;2023-02-13T09:55:15;24.00;;;13.07;;
27265;SDS011;14766;51.380;13.762;2023-02-13T09:57:51;30.38;;;14.95;;
27265;SDS011;14766;51.380;13.762;2023-02-13T10:00:38;23.92;;;12.38;;
27265;SDS011;14766;51.380;13.762;2023-02-13T10:05:43;25.65;;;12.93;;
27265;SDS011;14766;51.380;13.762;2023-02-13T10:17:03;24.13;;;12.93;;
27265;SDS011;14766;51.380;13.762;2023-02-13T10:20:18;30.15;;;14.18;;
27265;SDS011;14766;51.380;13.762;2023-02-13T10:22:45;29.17;;;14.80;;
27265;SDS011;14766;51.380;13.762;2023-02-13T10:25:21;25.35;;;14.20;;
27265;SDS011;14766;51.380;13.762;2023-02-13T10:27:54;28.33;;;16.17;;
27265;SDS011;14766;51.380;13.762;2023-02-13T10:30:27;24.60;;;14.38;;
27265;SDS011;14766;51.380;13.762;2023-02-13T10:35:46;25.35;;;14.15;;
27265;SDS011;14766;51.380;13.762;2023-02-13T10:38:35;21.75;;;12.73;;
27265;SDS011;14766;51.380;13.762;2023-02-13T10:49:56;22.60;;;13.10;;
27265;SDS011;14766;51.380;13.762;2023-02-13T11:03:59;19.63;;;10.82;;
27265;SDS011;14766;51.380;13.762;2023-02-13T11:06:29;20.13;;;10.98;;
27265;SDS011;14766;51.380;13.762;2023-02-13T11:09:00;18.00;;;10.27;;
27265;SDS011;14766;51.380;13.762;2023-02-13T11:11:28;17.13;;;9.85;;
27265;SDS011;14766;51.380;13.762;2023-02-13T11:14:13;19.35;;;10.25;;
27265;SDS011;14766;51.380;13.762;2023-02-13T11:19:34;15.02;;;9.05;;
27265;SDS011;14766;51.380;13.762;2023-02-13T11:22:11;15.38;;;8.95;;
27265;SDS011;14766;51.380;13.762;2023-02-13T11:24:41;13.38;;;8.73;;
27265;SDS011;14766;51.380;13.762;2023-02-13T11:27:21;18.13;;;8.73;;
27265;SDS011;14766;51.380;13.762;2023-02-13T11:32:25;16.48;;;9.65;;
27265;SDS011;14766;51.380;13.762;2023-02-13T11:34:53;13.32;;;8.50;;
27265;SDS011;14766;51.380;13.762;2023-02-13T11:37:22;15.07;;;8.55;;
27265;SDS011;14766;51.380;13.762;2023-02-13T11:39:55;13.70;;;8.85;;
27265;SDS011;14766;51.380;13.762;2023-02-13T11:42:26;13.43;;;7.82;;
27265;SDS011;14766;51.380;13.762;2023-02-13T11:45:06;12.40;;;8.80;;
27265;SDS011;14766;51.380;13.762;2023-02-13T11:47:54;11.35;;;7.55;;
27265;SDS011;14766;51.380;13.762;2023-02-13T12:00:37;11.40;;;7.80;;
27265;SDS011;14766;51.380;13.762;2023-02-13T12:03:26;10.80;;;7.57;;
27265;SDS011;14766;51.380;13.762;2023-02-13T12:08:35;12.82;;;7.88;;
27265;SDS011;14766;51.380;13.762;2023-02-13T12:11:13;11.57;;;7.60;;
27265;SDS011;14766;51.380;13.762;2023-02-13T12:13:42;11.07;;;8.00;;
27265;SDS011;14766;51.380;13.762;2023-02-13T12:16:15;30.92;;;8.25;;
27265;SDS011;14766;51.380;13.762;2023-02-13T12:18:52;10.73;;;7.28;;
27265;SDS011;14766;51.380;13.762;2023-02-13T12:26:41;12.90;;;8.20;;
27265;SDS011;14766;51.380;13.762;2023-02-13T12:37:38;9.73;;;6.85;;
27265;SDS011;14766;51.380;13.762;2023-02-13T12:40:41;9.43;;;6.60;;
27265;SDS011;14766;51.380;13.762;2023-02-13T12:46:08;11.13;;;7.40;;
27265;SDS011;14766;51.380;13.762;2023-02-13T12:51:27;11.32;;;7.90;;
27265;SDS011;14766;51.380;13.762;2023-02-13T12:56:34;10.95;;;8.88;;
27265;SDS011;14766;51.380;13.762;2023-02-13T13:02:15;9.57;;;7.03;;
27265;SDS011;14766;51.380;13.762;2023-02-13T13:05:03;10.98;;;7.45;;
27265;SDS011;14766;51.380;13.762;2023-02-13T13:10:22;11.88;;;9.60;;
27265;SDS011;14766;51.380;13.762;2023-02-13T13:15:55;13.10;;;9.48;;
27265;SDS011;14766;51.380;13.762;2023-02-13T13:24:17;12.18;;;9.45;;
27265;SDS011;14766;51.380;13.762;2023-02-13T13:26:54;12.02;;;8.88;;
27265;SDS011;14766;51.380;13.762;2023-02-13T13:29:36;11.85;;;8.27;;
27265;SDS011;14766;51.380;13.762;2023-02-13T13:34:40;10.60;;;7.43;;
27265;SDS011;14766;51.380;13.762;2023-02-13T13:37:16;11.98;;;7.50;;
27265;SDS011;14766;51.380;13.762;2023-02-13T13:42:33;11.40;;;7.90;;
27265;SDS011;14766;51.380;13.762;2023-02-13T13:50:53;11.40;;;7.63;;
27265;SDS011;14766;51.380;13.762;2023-02-13T13:53:21;10.45;;;7.43;;
27265;SDS011;14766;51.380;13.762;2023-02-13T14:01:20;10.40;;;7.40;;
27265;SDS011;14766;51.380;13.762;2023-02-13T14:03:59;10.73;;;7.50;;
27265;SDS011;14766;51.380;13.762;2023-02-13T14:11:54;9.73;;;7.50;;
27265;SDS011;14766;51.380;13.762;2023-02-13T14:17:02;11.63;;;7.70;;
27265;SDS011;14766;51.380;13.762;2023-02-13T14:24:54;10.90;;;7.68;;
27265;SDS011;14766;51.380;13.762;2023-02-13T14:27:24;12.98;;;8.57;;
27265;SDS011;14766;51.380;13.762;2023-02-13T14:29:54;12.57;;;8.57;;
27265;SDS011;14766;51.380;13.762;2023-02-13T14:32:24;12.25;;;8.02;;
27265;SDS011;14766;51.380;13.762;2023-02-13T14:35:17;13.48;;;8.85;;
27265;SDS011;14766;51.380;13.762;2023-02-13T14:42:47;13.15;;;9.20;;
27265;SDS011;14766;51.380;13.762;2023-02-13T14:45:42;14.30;;;10.40;;
27265;SDS011;14766;51.380;13.762;2023-02-13T14:53:49;17.15;;;11.75;;
27265;SDS011;14766;51.380;13.762;2023-02-13T14:56:19;17.00;;;11.68;;
27265;SDS011;14766;51.380;13.762;2023-02-13T14:58:52;14.20;;;10.27;;
27265;SDS011;14766;51.380;13.762;2023-02-13T15:01:51;18.15;;;11.00;;
27265;SDS011;14766;51.380;13.762;2023-02-13T15:04:29;14.07;;;10.80;;
27265;SDS011;14766;51.380;13.762;2023-02-13T15:07:03;18.52;;;13.70;;
27265;SDS011;14766;51.380;13.762;2023-02-13T15:09:38;19.13;;;13.75;;
27265;SDS011;14766;51.380;13.762;2023-02-13T15:12:23;19.42;;;14.05;;
27265;SDS011;14766;51.380;13.762;2023-02-13T15:15:02;16.83;;;12.38;;
27265;SDS011;14766;51.380;13.762;2023-02-13T15:17:49;17.40;;;11.57;;
27265;SDS011;14766;51.380;13.762;2023-02-13T15:22:55;20.45;;;13.65;;
27265;SDS011;14766;51.380;13.762;2023-02-13T15:25:36;22.70;;;14.15;;
27265;SDS011;14766;51.380;13.762;2023-02-13T15:28:07;24.52;;;16.13;;
27265;SDS011;14766;51.380;13.762;2023-02-13T15:30:43;23.95;;;15.82;;
27265;SDS011;14766;51.380;13.762;2023-02-13T15:33:32;19.10;;;13.35;;
27265;SDS011;14766;51.380;13.762;2023-02-13T15:36:20;18.55;;;12.15;;
27265;SDS011;14766;51.380;13.762;2023-02-13T15:39:01;17.95;;;12.20;;
27265;SDS011;14766;51.380;13.762;2023-02-13T15:41:37;18.13;;;12.40;;
27265;SDS011;14766;51.380;13.762;2023-02-13T15:49:37;25.75;;;16.35;;
27265;SDS011;14766;51.380;13.762;2023-02-13T15:52:17;21.63;;;13.43;;
27265;SDS011;14766;51.380;13.762;2023-02-13T15:54:55;22.70;;;12.05;;
27265;SDS011;14766;51.380;13.762;2023-02-13T15:57:23;18.42;;;12.15;;
27265;SDS011;14766;51.380;13.762;2023-02-13T15:59:53;19.20;;;11.38;;
27265;SDS011;14766;51.380;13.762;2023-02-13T16:02:44;17.33;;;11.55;;
27265;SDS011;14766;51.380;13.762;2023-02-13T16:05:12;16.88;;;11.38;;
27265;SDS011;14766;51.380;13.762;2023-02-13T16:07:51;14.20;;;10.10;;
27265;SDS011;14766;51.380;13.762;2023-02-13T16:12:58;17.95;;;12.00;;
27265;SDS011;14766;51.380;13.762;2023-02-13T16:15:29;18.95;;;11.77;;
27265;SDS011;14766;51.380;13.762;2023-02-13T16:17:57;17.48;;;12.38;;
27265;SDS011;14766;51.380;13.762;2023-02-13T16:20:26;18.70;;;13.07;;
27265;SDS011;14766;51.380;13.762;2023-02-13T16:23:05;17.63;;;11.77;;
27265;SDS011;14766;51.380;13.762;2023-02-13T16:25:41;18.05;;;12.13;;
27265;SDS011;14766;51.380;13.762;2023-02-13T16:30:42;18.83;;;12.55;;
27265;SDS011;14766;51.380;13.762;2023-02-13T16:35:46;19.52;;;12.02;;
27265;SDS011;14766;51.380;13.762;2023-02-13T16:38:38;21.10;;;13.23;;
27265;SDS011;14766;51.380;13.762;2023-02-13T16:51:14;20.13;;;13.65;;
27265;SDS011;14766;51.380;13.762;2023-02-13T16:53:47;23.15;;;13.50;;
27265;SDS011;14766;51.380;13.762;2023-02-13T16:59:02;19.42;;;13.50;;
27265;SDS011;14766;51.380;13.762;2023-02-13T17:07:41;18.02;;;12.27;;
27265;SDS011;14766;51.380;13.762;2023-02-13T17:10:30;19.48;;;12.75;;
27265;SDS011;14766;51.380;13.762;2023-02-13T17:13:00;20.33;;;13.57;;
27265;SDS011;14766;51.380;13.762;2023-02-13T17:15:32;21.73;;;12.52;;
27265;SDS011;14766;51.380;13.762;2023-02-13T17:18:00;19.75;;;13.32;;
27265;SDS011;14766;51.380;13.762;2023-02-13T17:20:28;22.70;;;15.00;;
27265;SDS011;14766;51.380;13.762;2023-02-13T17:22:58;31.33;;;19.65;;
27265;SDS011;14766;51.380;13.762;2023-02-13T17:25:28;26.70;;;16.15;;
27265;SDS011;14766;51.380;13.762;2023-02-13T17:27:58;22.08;;;14.50;;
27265;SDS011;14766;51.380;13.762;2023-02-13T17:30:28;20.60;;;13.68;;
27265;SDS011;14766;51.380;13.762;2023-02-13T17:33:05;19.55;;;14.20;;
27265;SDS011;14766;51.380;13.762;2023-02-13T17:35:35;26.30;;;16.90;;
27265;SDS011;14766;51.380;13.762;2023-02-13T17:38:02;24.50;;;15.63;;
27265;SDS011;14766;51.380;13.762;2023-02-13T17:40:32;20.52;;;14.15;;
27265;SDS011;14766;51.380;13.762;2023-02-13T17:42:59;19.80;;;13.43;;
27265;SDS011;14766;51.380;13.762;2023-02-13T17:45:27;19.52;;;13.63;;
27265;SDS011;14766;51.380;13.762;2023-02-13T17:47:57;20.35;;;14.07;;
27265;SDS011;14766;51.380;13.762;2023-02-13T17:50:26;20.42;;;13.77;;
27265;SDS011;14766;51.380;13.762;2023-02-13T17:52:55;21.35;;;14.15;;
27265;SDS011;14766;51.380;13.762;2023-02-13T17:55:23;20.45;;;14.07;;
27265;SDS011;14766;51.380;13.762;2023-02-13T17:57:52;20.10;;;13.70;;
27265;SDS011;14766;51.380;13.762;2023-02-13T18:00:22;17.95;;;12.85;;
27265;SDS011;14766;51.380;13.762;2023-02-13T18:02:52;17.85;;;12.85;;
27265;SDS011;14766;51.380;13.762;2023-02-13T18:05:20;18.98;;;12.52;;
27265;SDS011;14766;51.380;13.762;2023-02-13T18:07:47;17.80;;;12.93;;